Averill, Vermont
Current Conditions -  °F | °C
As of 4:55 AM on Sunday 23 Nov 2014 (Local Time) from KEFK Reporting Station
Drizzle Drizzle  
Wind Chill: 32°   Ceiling: 2000
Heat Index: 36°   Visibility: 10mi
Dew Point: 34°   Wind: 6mph
Humidity: 92%   Direction: 200°SSW
Pressure: 29.96"   Gusts: NA
Location:  45°N, 71.71°W
Report Text: KEFK 230955Z AUTO 20005KT 10SM DZ OVC020 02/01 A2996 RMK AO2 T00240012
Loading
Personal Weather Stations






























Interactive Weather Map New forecast layout! Learn more

10-Day Weather Forecast

Advertisements
Track Severe Weather on mobile